Time;durP1;ratioP1;P1;durP2;ratioP2;P2;SDS_P1;SDS_P2;PMS_P1;PMS_P2;Temp;Humidity;BMP_temperature;BMP_pressure;BME280_temperature;BME280_humidity;BME280_pressure;Samples;Min_cycle;Max_cycle;Signal;HPM_P1;HPM_P2
2024/02/22 00:00:54;;;;;;;2.30;2.10;;;9.30;53.50;;;;;;5006125;28;20432;-59
2024/02/22 00:03:20;;;;;;;2.77;2.00;;;9.40;53.60;;;;;;5006490;28;20187;-58
2024/02/22 00:05:45;;;;;;;2.93;2.27;;;9.40;53.50;;;;;;5005958;28;20460;-58
2024/02/22 00:08:11;;;;;;;3.70;2.23;;;9.50;53.60;;;;;;5006085;28;20331;-56
2024/02/22 00:10:36;;;;;;;2.33;2.13;;;9.50;53.80;;;;;;5007366;28;20184;-59
2024/02/22 00:13:02;;;;;;;4.00;2.50;;;9.50;53.10;;;;;;5005563;28;20173;-58
2024/02/22 00:15:30;;;;;;;4.27;2.23;;;9.60;52.60;;;;;;5006232;28;20204;-59
2024/02/22 00:17:56;;;;;;;2.30;2.10;;;9.60;52.40;;;;;;5007414;28;20263;-58
2024/02/22 00:20:22;;;;;;;4.00;2.30;;;9.70;52.50;;;;;;5004198;28;20598;-58
2024/02/22 00:22:47;;;;;;;3.70;2.10;;;9.70;52.30;;;;;;5001274;28;20187;-58
2024/02/22 00:25:13;;;;;;;3.00;2.10;;;9.70;52.00;;;;;;5005344;28;20212;-59
2024/02/22 00:27:39;;;;;;;2.20;2.10;;;9.80;52.10;;;;;;5003585;28;20189;-58
2024/02/22 00:30:14;;;;;;;2.17;1.97;;;9.80;52.20;;;;;;5006992;28;20177;-60
2024/02/22 00:32:43;;;;;;;3.23;2.33;;;9.80;52.00;;;;;;5006539;28;20905;-59
2024/02/22 00:35:10;;;;;;;4.33;2.20;;;9.80;52.00;;;;;;5004472;28;20547;-59
2024/02/22 00:37:36;;;;;;;2.23;2.00;;;9.90;52.10;;;;;;5006446;28;20830;-58
2024/02/22 00:40:05;;;;;;;6.57;2.33;;;9.90;52.10;;;;;;5005735;28;20476;-60
2024/02/22 00:42:31;;;;;;;3.47;2.50;;;9.90;52.30;;;;;;5007241;28;20195;-59
2024/02/22 00:44:57;;;;;;;4.23;2.43;;;9.90;52.50;;;;;;5003266;28;20486;-59
2024/02/22 00:47:23;;;;;;;3.27;2.40;;;9.90;52.50;;;;;;5005056;28;20399;-59
2024/02/22 00:49:49;;;;;;;2.17;2.00;;;9.90;52.80;;;;;;5008176;28;20180;-59
2024/02/22 00:52:14;;;;;;;4.20;2.20;;;9.90;52.90;;;;;;5004391;28;20177;-59
2024/02/22 00:54:41;;;;;;;4.63;2.23;;;9.90;53.00;;;;;;5002250;28;20622;-59
2024/02/22 00:57:07;;;;;;;3.20;2.13;;;9.90;53.50;;;;;;5004608;28;20200;-59
2024/02/22 00:59:33;;;;;;;9.03;2.70;;;9.80;53.60;;;;;;5005124;28;21118;-60
2024/02/22 01:01:59;;;;;;;14.43;2.43;;;9.80;54.10;;;;;;5003363;28;20438;-60
2024/02/22 01:04:29;;;;;;;3.27;2.37;;;9.80;54.40;;;;;;5007440;28;20502;-60
2024/02/22 01:06:56;;;;;;;3.40;2.90;;;9.70;54.80;;;;;;5002895;28;21141;-59
2024/02/22 01:09:22;;;;;;;5.13;2.60;;;9.70;55.60;;;;;;5004242;28;20518;-59
2024/02/22 01:11:47;;;;;;;3.00;2.20;;;9.70;55.30;;;;;;5004149;28;20403;-59
2024/02/22 01:14:15;;;;;;;4.30;2.33;;;9.70;55.80;;;;;;5005427;28;20455;-58
2024/02/22 01:16:40;;;;;;;4.00;2.17;;;9.70;56.10;;;;;;5007511;28;20184;-58
2024/02/22 01:19:06;;;;;;;3.00;2.23;;;9.70;56.30;;;;;;5009235;28;20430;-59
2024/02/22 01:21:31;;;;;;;2.17;1.97;;;9.70;56.60;;;;;;5009623;28;20180;-60
2024/02/22 01:23:58;;;;;;;2.90;2.20;;;9.70;57.00;;;;;;5008971;28;20196;-58
2024/02/22 01:26:23;;;;;;;4.90;1.90;;;9.60;57.20;;;;;;5007654;28;20176;-58
2024/02/22 01:28:49;;;;;;;4.40;2.30;;;9.60;57.50;;;;;;5007055;28;20430;-59
2024/02/22 01:31:15;;;;;;;1.90;1.80;;;9.60;57.70;;;;;;5007724;28;20271;-59
2024/02/22 01:33:43;;;;;;;4.30;2.20;;;9.50;57.90;;;;;;5010335;28;20432;-59
2024/02/22 01:36:08;;;;;;;4.80;2.53;;;9.50;58.20;;;;;;5006705;28;20271;-60
2024/02/22 01:38:35;;;;;;;3.70;2.70;;;9.50;58.50;;;;;;5024068;28;21071;-59
2024/02/22 01:41:01;;;;;;;3.57;2.10;;;9.40;58.70;;;;;;5007166;28;20176;-59
2024/02/22 01:43:27;;;;;;;2.20;2.00;;;9.40;59.00;;;;;;5006753;28;20447;-59
2024/02/22 01:45:53;;;;;;;3.20;2.20;;;9.40;59.20;;;;;;5010753;28;20574;-59
2024/02/22 01:48:19;;;;;;;2.40;2.20;;;9.30;59.40;;;;;;5009355;28;21078;-59
2024/02/22 01:50:52;;;;;;;4.37;2.37;;;9.30;59.60;;;;;;5007864;28;20431;-58
2024/02/22 01:53:27;;;;;;;2.83;2.00;;;9.30;59.70;;;;;;5008498;28;20177;-59
2024/02/22 01:55:57;;;;;;;6.93;2.10;;;9.30;59.90;;;;;;5010568;28;20441;-59
2024/02/22 01:58:24;;;;;;;2.57;2.37;;;9.30;60.00;;;;;;5007012;28;20439;-58
2024/02/22 02:00:50;;;;;;;5.40;2.20;;;9.30;60.10;;;;;;5007450;28;20910;-58
2024/02/22 02:03:16;;;;;;;2.50;2.00;;;9.20;60.20;;;;;;5007240;28;20522;-58
2024/02/22 02:05:43;;;;;;;2.60;2.40;;;9.20;60.20;;;;;;5009552;28;20550;-59
2024/02/22 02:08:11;;;;;;;4.00;2.63;;;9.20;60.40;;;;;;5008081;28;20177;-59
2024/02/22 02:10:37;;;;;;;2.93;2.10;;;9.20;60.50;;;;;;5005502;28;20423;-59
2024/02/22 02:13:05;;;;;;;2.60;1.90;;;9.20;60.60;;;;;;5004657;28;20423;-59
2024/02/22 02:15:31;;;;;;;3.43;2.10;;;9.20;60.70;;;;;;5008743;28;20244;-59
2024/02/22 02:17:56;;;;;;;2.60;2.20;;;9.20;61.00;;;;;;5006403;28;20447;-59
2024/02/22 02:20:26;;;;;;;2.77;2.10;;;9.10;61.00;;;;;;5009965;28;20173;-59
2024/02/22 02:23:07;;;;;;;4.27;2.17;;;9.10;61.20;;;;;;5008500;28;20300;-59
2024/02/22 02:25:32;;;;;;;6.90;2.20;;;9.10;61.30;;;;;;5009157;28;20474;-59
2024/02/22 02:27:58;;;;;;;3.07;2.40;;;9.10;61.80;;;;;;5001391;28;21316;-59
2024/02/22 02:30:24;;;;;;;2.10;1.93;;;9.10;62.40;;;;;;5007019;28;20176;-59
2024/02/22 02:32:49;;;;;;;3.00;2.20;;;9.10;63.00;;;;;;5009896;28;20172;-57
2024/02/22 02:35:15;;;;;;;2.10;1.90;;;9.00;63.40;;;;;;5006400;28;20219;-59
2024/02/22 02:37:40;;;;;;;3.30;2.13;;;9.00;63.90;;;;;;5006098;28;20267;-60
2024/02/22 02:40:07;;;;;;;2.43;2.23;;;9.00;64.40;;;;;;5021886;28;20219;-59
2024/02/22 02:42:32;;;;;;;3.73;2.40;;;8.90;65.10;;;;;;5007013;28;20215;-59
2024/02/22 02:44:58;;;;;;;2.77;2.33;;;8.90;65.90;;;;;;5006286;28;20497;-58
2024/02/22 02:47:23;;;;;;;2.00;1.90;;;8.80;66.40;;;;;;5005217;28;20203;-58
2024/02/22 02:49:49;;;;;;;2.30;2.10;;;8.80;67.00;;;;;;5009425;28;20256;-58
2024/02/22 02:52:15;;;;;;;4.73;2.40;;;8.70;67.70;;;;;;5002740;28;20188;-59
2024/02/22 02:54:40;;;;;;;3.03;2.20;;;8.70;68.50;;;;;;5007964;28;20193;-59
2024/02/22 02:57:06;;;;;;;6.30;2.43;;;8.70;70.10;;;;;;5003521;28;20601;-59
2024/02/22 02:59:32;;;;;;;5.73;2.20;;;8.60;71.60;;;;;;5005414;28;21071;-60
2024/02/22 03:01:57;;;;;;;3.00;2.20;;;8.60;74.30;;;;;;5006481;28;20234;-58
2024/02/22 03:04:23;;;;;;;2.40;2.20;;;8.50;78.10;;;;;;4999900;28;20250;-59
2024/02/22 03:06:48;;;;;;;3.20;2.37;;;8.50;82.10;;;;;;5006985;28;20197;-59
2024/02/22 03:09:14;;;;;;;2.37;2.17;;;8.50;87.10;;;;;;5005788;28;20203;-59
2024/02/22 03:11:40;;;;;;;2.30;2.10;;;8.40;90.30;;;;;;5004971;28;20559;-59
2024/02/22 03:14:06;;;;;;;2.67;1.87;;;8.40;92.20;;;;;;5007855;28;20565;-59
2024/02/22 03:16:32;;;;;;;2.93;2.40;;;8.30;94.90;;;;;;5004913;28;20218;-59
2024/02/22 03:18:58;;;;;;;2.30;2.00;;;8.30;96.40;;;;;;5004123;28;20172;-58
2024/02/22 03:21:24;;;;;;;2.20;2.00;;;8.20;98.50;;;;;;5007810;28;20435;-59
2024/02/22 03:23:49;;;;;;;12.83;2.50;;;8.20;99.90;;;;;;5007991;28;20275;-59
2024/02/22 03:26:16;;;;;;;3.17;2.30;;;8.20;99.90;;;;;;5002131;28;20672;-59
2024/02/22 03:28:42;;;;;;;3.40;2.20;;;8.10;99.90;;;;;;5007316;28;20543;-58
2024/02/22 03:31:08;;;;;;;2.67;2.20;;;8.10;99.90;;;;;;5005661;28;20498;-59
2024/02/22 03:33:34;;;;;;;2.47;2.10;;;8.10;99.90;;;;;;5006849;28;20443;-59
2024/02/22 03:36:04;;;;;;;4.17;2.17;;;8.10;99.90;;;;;;5004869;28;20180;-58
2024/02/22 03:38:30;;;;;;;3.97;2.23;;;8.00;99.90;;;;;;5005918;28;20176;-58
2024/02/22 03:40:56;;;;;;;2.43;2.23;;;8.00;99.90;;;;;;5005937;28;20427;-59
2024/02/22 03:43:22;;;;;;;4.33;2.20;;;7.90;99.90;;;;;;5005841;28;20210;-59
2024/02/22 03:45:47;;;;;;;3.93;2.77;;;7.90;99.90;;;;;;5008635;28;20204;-59
2024/02/22 03:48:13;;;;;;;4.80;2.27;;;7.90;99.90;;;;;;5006881;28;20418;-59
2024/02/22 03:50:39;;;;;;;5.70;2.23;;;7.80;99.90;;;;;;5003857;28;20207;-59
2024/02/22 03:53:04;;;;;;;3.50;2.20;;;7.80;99.90;;;;;;5002189;28;20632;-59
2024/02/22 03:55:33;;;;;;;3.80;2.60;;;7.80;99.90;;;;;;5006022;28;20196;-59
2024/02/22 03:57:58;;;;;;;2.40;2.20;;;7.70;99.90;;;;;;5004780;28;20181;-58
2024/02/22 04:00:24;;;;;;;3.43;2.20;;;7.70;99.90;;;;;;5006216;28;20417;-58
2024/02/22 04:02:50;;;;;;;2.80;2.10;;;7.70;99.90;;;;;;5003632;28;20192;-58
2024/02/22 04:05:16;;;;;;;3.73;2.30;;;7.60;99.90;;;;;;5007954;28;20250;-59
2024/02/22 04:07:42;;;;;;;2.73;1.70;;;7.60;99.90;;;;;;5004286;28;20415;-59
2024/02/22 04:10:09;;;;;;;2.50;2.30;;;7.60;99.90;;;;;;5005988;28;20196;-58
2024/02/22 04:12:35;;;;;;;1.90;1.80;;;7.60;99.90;;;;;;5007445;28;20457;-59
2024/02/22 04:15:01;;;;;;;3.70;2.40;;;7.60;99.90;;;;;;5006945;28;20518;-59
2024/02/22 04:17:27;;;;;;;4.43;2.23;;;7.50;99.90;;;;;;5004402;28;20222;-59
2024/02/22 04:19:55;;;;;;;2.53;2.20;;;7.50;99.90;;;;;;5006323;28;20522;-59
2024/02/22 04:22:20;;;;;;;2.47;2.20;;;7.50;99.90;;;;;;5006321;28;20176;-59
2024/02/22 04:24:46;;;;;;;3.20;1.87;;;7.50;99.90;;;;;;5005055;28;20471;-58
2024/02/22 04:27:12;;;;;;;3.40;2.20;;;7.50;99.90;;;;;;5006591;28;20192;-58
2024/02/22 04:29:37;;;;;;;2.23;1.97;;;7.50;99.90;;;;;;5004675;28;20172;-57
2024/02/22 04:32:03;;;;;;;2.80;2.03;;;7.40;99.90;;;;;;5006408;28;20176;-59
2024/02/22 04:34:29;;;;;;;2.20;2.00;;;7.40;99.90;;;;;;5005716;28;20306;-59
2024/02/22 04:36:55;;;;;;;3.60;2.30;;;7.40;99.90;;;;;;5007458;28;20419;-58
2024/02/22 04:39:20;;;;;;;2.70;2.30;;;7.40;99.90;;;;;;5005242;28;20191;-59
2024/02/22 04:41:46;;;;;;;3.43;1.97;;;7.40;99.90;;;;;;5006944;28;20204;-58
2024/02/22 04:44:12;;;;;;;2.20;1.73;;;7.40;99.90;;;;;;5003173;28;20208;-59
2024/02/22 04:46:37;;;;;;;2.33;1.60;;;7.40;99.90;;;;;;5007964;28;20175;-59
2024/02/22 04:49:04;;;;;;;2.43;1.73;;;7.40;99.90;;;;;;5005368;28;20172;-59
2024/02/22 04:51:33;;;;;;;3.67;2.03;;;7.40;99.90;;;;;;5005016;28;20177;-59
2024/02/22 04:54:02;;;;;;;1.37;1.27;;;7.40;99.90;;;;;;5010118;28;20433;-59
2024/02/22 04:56:28;;;;;;;1.50;1.40;;;7.40;99.90;;;;;;5011319;28;20889;-57
2024/02/22 04:58:57;;;;;;;2.30;1.70;;;7.40;99.90;;;;;;5009904;28;20969;-57
2024/02/22 05:01:24;;;;;;;2.30;1.57;;;7.40;99.90;;;;;;5002587;28;20187;-59
2024/02/22 05:03:50;;;;;;;2.07;1.60;;;7.40;99.90;;;;;;5008889;28;20816;-59
2024/02/22 05:06:15;;;;;;;1.67;1.57;;;7.50;99.90;;;;;;5005202;28;20449;-59
2024/02/22 05:08:41;;;;;;;2.43;1.80;;;7.50;99.90;;;;;;5004996;28;20237;-59
2024/02/22 05:11:09;;;;;;;3.10;1.70;;;7.50;99.90;;;;;;5008487;28;20176;-61
2024/02/22 05:13:35;;;;;;;1.53;1.43;;;7.50;99.90;;;;;;5003122;28;20612;-59
2024/02/22 05:16:01;;;;;;;1.40;1.30;;;7.40;99.90;;;;;;5007826;28;20443;-60
2024/02/22 05:18:26;;;;;;;1.93;1.50;;;7.40;99.90;;;;;;5005669;28;20180;-60
2024/02/22 05:20:52;;;;;;;1.87;1.63;;;7.40;99.90;;;;;;5010288;28;20188;-61
2024/02/22 05:23:17;;;;;;;3.40;1.30;;;7.40;99.90;;;;;;5007343;28;20188;-59
2024/02/22 05:25:43;;;;;;;5.77;1.40;;;7.40;99.90;;;;;;5007195;28;20613;-59
2024/02/22 05:28:09;;;;;;;2.70;1.27;;;7.40;99.90;;;;;;5006223;28;20176;-59
2024/02/22 05:30:35;;;;;;;1.77;1.50;;;7.40;99.90;;;;;;5008295;28;20174;-59
2024/02/22 05:33:00;;;;;;;1.30;1.20;;;7.40;99.90;;;;;;5005712;28;20173;-57
2024/02/22 05:35:26;;;;;;;4.53;1.90;;;7.40;99.90;;;;;;4995613;28;21546;-59
2024/02/22 05:37:52;;;;;;;1.87;1.23;;;7.40;99.90;;;;;;5001262;28;20172;-59
2024/02/22 05:40:17;;;;;;;1.40;1.30;;;7.40;99.90;;;;;;5000338;28;20307;-61
2024/02/22 05:42:44;;;;;;;2.10;1.50;;;7.40;99.90;;;;;;5006036;28;20658;-59
2024/02/22 05:45:09;;;;;;;1.80;1.30;;;7.40;99.90;;;;;;5005334;28;20212;-58
2024/02/22 05:47:35;;;;;;;1.63;1.27;;;7.30;99.90;;;;;;5007212;28;20469;-58
2024/02/22 05:50:02;;;;;;;1.50;1.40;;;7.30;99.90;;;;;;5007017;28;20435;-60
2024/02/22 05:52:27;;;;;;;1.50;1.40;;;7.30;99.90;;;;;;5007144;28;20208;-59
2024/02/22 05:54:53;;;;;;;3.10;1.50;;;7.30;99.90;;;;;;5005248;28;20479;-60
2024/02/22 05:57:20;;;;;;;2.40;1.57;;;7.30;99.90;;;;;;5005372;28;20200;-60
2024/02/22 05:59:45;;;;;;;2.40;1.00;;;7.30;99.90;;;;;;5005595;28;20184;-60
2024/02/22 06:02:11;;;;;;;1.50;1.40;;;7.30;99.90;;;;;;5011018;28;20420;-60
2024/02/22 06:04:37;;;;;;;4.10;1.37;;;7.30;99.90;;;;;;5011700;28;20204;-59
2024/02/22 06:07:03;;;;;;;1.30;1.17;;;7.30;99.90;;;;;;5008858;28;20703;-60
2024/02/22 06:09:29;;;;;;;4.00;1.40;;;7.30;99.90;;;;;;5007051;28;20412;-60
2024/02/22 06:11:54;;;;;;;1.43;1.33;;;7.30;99.90;;;;;;5007390;28;20276;-60
2024/02/22 06:14:20;;;;;;;1.53;1.30;;;7.30;99.90;;;;;;5007650;28;20203;-60
2024/02/22 06:16:46;;;;;;;2.50;1.80;;;7.30;99.90;;;;;;5008395;28;20548;-60
2024/02/22 06:19:11;;;;;;;1.50;1.17;;;7.30;99.90;;;;;;5008782;28;20173;-60
2024/02/22 06:21:37;;;;;;;1.43;1.33;;;7.30;99.90;;;;;;5010139;28;20672;-60
2024/02/22 06:24:02;;;;;;;5.90;1.77;;;7.20;99.90;;;;;;5008166;28;20197;-59
2024/02/22 06:26:35;;;;;;;2.60;1.50;;;7.20;99.90;;;;;;5007052;28;20184;-60
2024/02/22 06:29:01;;;;;;;2.10;1.40;;;7.20;99.90;;;;;;5004524;28;20191;-60
2024/02/22 06:31:27;;;;;;;1.30;1.20;;;7.20;99.90;;;;;;5004909;28;20431;-60
2024/02/22 06:33:52;;;;;;;1.50;1.40;;;7.20;99.90;;;;;;5009003;28;20829;-60
2024/02/22 06:36:19;;;;;;;2.40;1.30;;;7.20;99.90;;;;;;5009094;28;20180;-61
2024/02/22 06:38:48;;;;;;;2.30;1.70;;;7.20;99.90;;;;;;5006855;28;20553;-60
2024/02/22 06:41:15;;;;;;;3.00;1.30;;;7.20;99.90;;;;;;5003952;28;20589;-60
2024/02/22 06:43:41;;;;;;;1.30;1.20;;;7.20;99.90;;;;;;5016683;28;20833;-61
2024/02/22 06:46:06;;;;;;;1.70;1.50;;;7.20;99.90;;;;;;5007928;28;20455;-61
2024/02/22 06:48:32;;;;;;;2.00;1.40;;;7.20;99.90;;;;;;5008868;28;20267;-59
2024/02/22 06:50:59;;;;;;;1.43;1.20;;;7.20;99.90;;;;;;5007243;28;20181;-60
2024/02/22 06:53:24;;;;;;;2.70;1.10;;;7.20;99.90;;;;;;5009560;28;20860;-60
2024/02/22 06:55:50;;;;;;;3.43;1.40;;;7.30;99.90;;;;;;5008541;28;20502;-60
2024/02/22 06:58:16;;;;;;;1.60;1.33;;;7.20;99.90;;;;;;5007535;28;20196;-60
2024/02/22 07:00:41;;;;;;;1.67;1.20;;;7.30;99.90;;;;;;5007954;28;20184;-60
2024/02/22 07:03:07;;;;;;;3.53;1.37;;;7.20;99.90;;;;;;5007197;28;20577;-61
2024/02/22 07:05:33;;;;;;;1.40;1.30;;;7.30;99.90;;;;;;5000780;28;20236;-60
2024/02/22 07:07:58;;;;;;;1.43;1.33;;;7.30;99.90;;;;;;5007683;28;20173;-61
2024/02/22 07:10:24;;;;;;;1.70;1.30;;;7.30;99.90;;;;;;5003281;28;20172;-60
2024/02/22 07:12:51;;;;;;;3.07;1.90;;;7.30;99.90;;;;;;5005859;28;20255;-60
2024/02/22 07:15:16;;;;;;;2.73;1.10;;;7.30;99.90;;;;;;5008087;28;20300;-60
2024/02/22 07:17:43;;;;;;;1.23;1.13;;;7.30;99.90;;;;;;5008925;28;20494;-60
2024/02/22 07:20:10;;;;;;;1.20;1.20;;;7.30;99.90;;;;;;5006608;28;20176;-60
2024/02/22 07:22:35;;;;;;;6.67;1.30;;;7.30;99.90;;;;;;5007268;28;21107;-60
2024/02/22 07:25:01;;;;;;;1.30;1.20;;;7.30;99.90;;;;;;5006989;28;20459;-60
2024/02/22 07:27:26;;;;;;;1.43;1.33;;;7.30;99.90;;;;;;5008070;28;20184;-60
2024/02/22 07:29:52;;;;;;;1.33;1.23;;;7.20;99.90;;;;;;5008640;28;20165;-60
2024/02/22 07:32:18;;;;;;;1.33;1.17;;;7.20;99.90;;;;;;5005136;28;20893;-61
2024/02/22 07:34:44;;;;;;;3.13;1.20;;;7.20;99.90;;;;;;5003380;28;20196;-60
2024/02/22 07:37:11;;;;;;;30.47;4.60;;;7.30;99.90;;;;;;5004065;28;20527;-60
2024/02/22 07:39:37;;;;;;;3.53;1.17;;;7.20;99.90;;;;;;5005607;28;20330;-60
2024/02/22 07:42:03;;;;;;;2.40;1.20;;;7.30;99.90;;;;;;5005699;28;20423;-60
2024/02/22 07:44:29;;;;;;;6.10;1.77;;;7.30;99.90;;;;;;5007985;28;20482;-60
2024/02/22 07:46:54;;;;;;;1.90;1.23;;;7.30;99.90;;;;;;5007981;28;20799;-60
2024/02/22 07:49:21;;;;;;;1.93;1.70;;;7.30;99.90;;;;;;5008213;28;20189;-60
2024/02/22 07:51:47;;;;;;;21.73;2.50;;;7.30;99.90;;;;;;5007485;28;20184;-60
2024/02/22 07:54:13;;;;;;;1.30;1.20;;;7.30;99.90;;;;;;5005232;28;20466;-61
2024/02/22 07:56:39;;;;;;;4.23;1.60;;;7.30;99.90;;;;;;5003876;28;20518;-60
2024/02/22 07:59:06;;;;;;;1.90;1.17;;;7.30;99.90;;;;;;5007489;28;20200;-61
2024/02/22 08:01:31;;;;;;;1.10;1.10;;;7.30;99.90;;;;;;5008095;28;20419;-60
2024/02/22 08:03:57;;;;;;;3.23;1.20;;;7.30;99.90;;;;;;5004193;28;20573;-60
2024/02/22 08:06:22;;;;;;;2.27;1.27;;;7.30;99.90;;;;;;5007006;28;20207;-60
2024/02/22 08:08:48;;;;;;;1.20;1.10;;;7.30;99.90;;;;;;5006725;28;20444;-60
2024/02/22 08:11:15;;;;;;;1.40;1.30;;;7.30;99.90;;;;;;5007588;28;20180;-60
2024/02/22 08:13:42;;;;;;;1.20;1.10;;;7.30;99.90;;;;;;5004040;28;20580;-61
2024/02/22 08:16:08;;;;;;;1.20;1.10;;;7.30;99.90;;;;;;5004239;28;20435;-60
2024/02/22 08:18:35;;;;;;;1.70;1.20;;;7.30;99.90;;;;;;5006419;28;20434;-59
2024/02/22 08:21:02;;;;;;;1.30;1.20;;;7.30;99.90;;;;;;5003124;28;20500;-61
2024/02/22 08:23:28;;;;;;;1.13;1.03;;;7.30;99.90;;;;;;5005513;28;20466;-61
2024/02/22 08:25:55;;;;;;;1.47;1.10;;;7.30;99.90;;;;;;5006406;28;20546;-62
2024/02/22 08:28:21;;;;;;;0.80;0.80;;;7.30;99.90;;;;;;5008677;28;20474;-58
2024/02/22 08:30:47;;;;;;;1.10;1.00;;;7.30;99.90;;;;;;5008853;28;20411;-60
2024/02/22 08:33:13;;;;;;;1.47;1.23;;;7.30;99.90;;;;;;5011202;28;20431;-60
2024/02/22 08:35:39;;;;;;;2.13;1.30;;;7.30;99.90;;;;;;5008849;28;20200;-60
2024/02/22 08:38:04;;;;;;;1.00;1.00;;;7.30;99.90;;;;;;5009467;28;20950;-60
2024/02/22 08:40:30;;;;;;;1.90;1.33;;;7.30;99.90;;;;;;5007718;28;20245;-60
2024/02/22 08:43:00;;;;;;;1.43;1.17;;;7.30;99.90;;;;;;5010554;28;20173;-61
2024/02/22 08:45:29;;;;;;;1.20;1.10;;;7.30;99.90;;;;;;5008585;28;20286;-62
2024/02/22 08:47:54;;;;;;;2.30;1.20;;;7.30;99.90;;;;;;5007566;28;20426;-60
2024/02/22 08:50:23;;;;;;;1.20;1.10;;;7.30;99.90;;;;;;5007716;28;20431;-60
2024/02/22 08:52:48;;;;;;;4.80;1.00;;;7.40;99.90;;;;;;5010204;28;20171;-60
2024/02/22 08:55:14;;;;;;;1.10;1.00;;;7.40;99.90;;;;;;5009957;28;20613;-60
2024/02/22 08:57:40;;;;;;;4.20;1.20;;;7.40;99.90;;;;;;5008654;28;20227;-60
2024/02/22 09:00:11;;;;;;;1.33;1.10;;;7.40;99.90;;;;;;5006837;28;20228;-60
2024/02/22 09:02:38;;;;;;;2.13;1.53;;;7.40;99.90;;;;;;5008891;28;20811;-60
2024/02/22 09:05:05;;;;;;;1.30;1.20;;;7.40;99.90;;;;;;5006920;28;20947;-60
2024/02/22 09:07:31;;;;;;;2.20;1.53;;;7.40;99.90;;;;;;5010119;28;20416;-60
2024/02/22 09:09:57;;;;;;;1.33;1.23;;;7.40;99.90;;;;;;5009817;28;20506;-61
2024/02/22 09:12:23;;;;;;;1.17;1.03;;;7.40;99.90;;;;;;5012024;28;20840;-61
2024/02/22 09:14:48;;;;;;;1.97;1.00;;;7.50;99.90;;;;;;5011001;28;20281;-60
2024/02/22 09:17:14;;;;;;;1.30;0.97;;;7.50;99.90;;;;;;5008676;28;20177;-60
2024/02/22 09:19:40;;;;;;;0.80;0.80;;;7.50;99.90;;;;;;5009004;28;20184;-60
2024/02/22 09:22:05;;;;;;;1.60;1.40;;;7.50;99.90;;;;;;5009277;28;20188;-60
2024/02/22 09:24:31;;;;;;;2.03;1.20;;;7.50;99.90;;;;;;5006438;28;20224;-61
2024/02/22 09:26:57;;;;;;;1.30;1.20;;;7.50;99.90;;;;;;5011986;28;20180;-60
2024/02/22 09:29:26;;;;;;;0.93;0.90;;;7.50;99.90;;;;;;5008720;28;20172;-60
2024/02/22 09:31:55;;;;;;;1.00;0.90;;;7.60;99.90;;;;;;5009573;28;20899;-61
2024/02/22 09:34:22;;;;;;;1.40;1.30;;;7.60;99.90;;;;;;5009564;28;20510;-61
2024/02/22 09:36:48;;;;;;;1.07;0.97;;;7.60;99.90;;;;;;5009643;28;20446;-60
2024/02/22 09:39:14;;;;;;;1.10;1.10;;;7.60;99.90;;;;;;5008595;28;20416;-60
2024/02/22 09:41:41;;;;;;;0.90;0.90;;;7.60;99.90;;;;;;5009807;28;20706;-59
2024/02/22 09:44:07;;;;;;;0.90;0.90;;;7.60;99.90;;;;;;5010226;28;20462;-61
2024/02/22 09:46:32;;;;;;;0.80;0.80;;;7.60;99.90;;;;;;5008519;28;20981;-60
2024/02/22 09:48:58;;;;;;;0.80;0.80;;;7.60;99.90;;;;;;5005425;28;20173;-59
2024/02/22 09:51:25;;;;;;;0.80;0.80;;;7.70;99.90;;;;;;5010118;28;20181;-61
2024/02/22 09:53:52;;;;;;;1.27;1.10;;;7.70;99.90;;;;;;5009707;28;20250;-60
2024/02/22 09:56:18;;;;;;;1.00;0.90;;;7.70;99.90;;;;;;5007148;28;20415;-61
2024/02/22 09:58:48;;;;;;;1.23;1.13;;;7.70;99.90;;;;;;5004787;28;20439;-60
2024/02/22 10:01:13;;;;;;;0.90;0.90;;;7.70;99.90;;;;;;5008022;28;20176;-60
2024/02/22 10:03:40;;;;;;;0.97;0.97;;;7.70;99.90;;;;;;5009695;28;21043;-60
2024/02/22 10:06:18;;;;;;;1.77;1.30;;;7.80;99.90;;;;;;5008646;28;20299;-60
2024/02/22 10:08:46;;;;;;;1.53;0.90;;;7.70;99.90;;;;;;5004170;28;20438;-60
2024/02/22 10:11:12;;;;;;;1.90;0.97;;;7.70;99.90;;;;;;5009632;28;20455;-60
2024/02/22 10:13:37;;;;;;;1.07;0.93;;;7.80;99.90;;;;;;5009017;28;20445;-60
2024/02/22 10:16:15;;;;;;;0.87;0.87;;;7.80;99.90;;;;;;5005167;28;20213;-60
2024/02/22 10:18:41;;;;;;;0.80;0.80;;;7.80;99.90;;;;;;5008955;28;20188;-60
2024/02/22 10:21:14;;;;;;;1.10;1.00;;;7.80;99.90;;;;;;5009974;28;20408;-60
2024/02/22 10:23:40;;;;;;;1.13;1.03;;;7.80;99.90;;;;;;5008741;28;20443;-59
2024/02/22 10:26:05;;;;;;;0.93;0.93;;;7.90;99.90;;;;;;5005297;28;20807;-60
2024/02/22 10:28:31;;;;;;;0.90;0.90;;;7.90;99.90;;;;;;5009512;28;20635;-60
2024/02/22 10:31:06;;;;;;;1.20;1.10;;;7.90;99.90;;;;;;5008925;28;20192;-60
2024/02/22 10:33:36;;;;;;;0.93;0.93;;;7.90;99.90;;;;;;5003529;28;20211;-60
2024/02/22 10:36:03;;;;;;;1.20;1.10;;;7.90;99.90;;;;;;5008993;28;20428;-60
2024/02/22 10:38:32;;;;;;;0.90;0.90;;;7.90;99.90;;;;;;5005995;28;20427;-60
2024/02/22 10:41:00;;;;;;;1.03;0.93;;;8.00;99.90;;;;;;5006928;28;20407;-60
2024/02/22 10:43:26;;;;;;;1.00;1.00;;;8.00;99.90;;;;;;5009110;28;20436;-60
2024/02/22 10:46:00;;;;;;;1.67;1.10;;;7.90;99.90;;;;;;5007235;28;20462;-61
2024/02/22 10:48:32;;;;;;;1.60;1.20;;;8.00;99.90;;;;;;5004775;28;20179;-59
2024/02/22 10:51:01;;;;;;;1.20;1.20;;;8.00;99.90;;;;;;5007747;28;20400;-60
2024/02/22 10:53:27;;;;;;;1.10;1.00;;;8.10;99.90;;;;;;5004117;28;20435;-58
2024/02/22 10:55:57;;;;;;;1.13;1.07;;;8.10;99.90;;;;;;5005726;28;20442;-59
2024/02/22 10:58:25;;;;;;;1.13;1.03;;;8.10;99.90;;;;;;5003115;28;20934;-60
2024/02/22 11:00:52;;;;;;;1.00;0.90;;;8.10;99.90;;;;;;5006596;28;20415;-61
2024/02/22 11:03:21;;;;;;;1.13;1.03;;;8.10;99.90;;;;;;5006651;28;20416;-59
2024/02/22 11:05:47;;;;;;;1.37;0.80;;;8.10;99.90;;;;;;5006324;28;20453;-57
2024/02/22 11:08:22;;;;;;;3.00;1.13;;;8.10;99.90;;;;;;5004816;28;20854;-59
2024/02/22 11:11:07;;;;;;;10.23;4.83;;;8.00;99.90;;;;;;5007003;28;20466;-60
2024/02/22 11:13:39;;;;;;;1.63;1.30;;;8.10;99.90;;;;;;5006387;28;20465;-59
2024/02/22 11:16:15;;;;;;;2.03;1.50;;;8.00;99.90;;;;;;5004281;28;20920;-59
2024/02/22 11:18:40;;;;;;;0.93;0.93;;;8.00;99.90;;;;;;5005554;28;20420;-59
2024/02/22 11:21:13;;;;;;;1.07;0.97;;;8.00;99.90;;;;;;5006806;28;20446;-60
2024/02/22 11:23:39;;;;;;;1.20;1.07;;;8.00;99.90;;;;;;5002584;28;20267;-60
2024/02/22 11:26:05;;;;;;;1.27;1.03;;;8.00;99.90;;;;;;5008389;28;20954;-60
2024/02/22 11:28:30;;;;;;;1.10;1.00;;;8.00;99.90;;;;;;5005365;28;20476;-61
2024/02/22 11:31:07;;;;;;;1.43;0.90;;;8.00;99.90;;;;;;5002844;28;20173;-60
2024/02/22 11:33:34;;;;;;;1.40;1.30;;;8.00;99.90;;;;;;5007727;28;20176;-60
2024/02/22 11:36:00;;;;;;;2.70;1.77;;;8.00;99.90;;;;;;5005959;28;20466;-59
2024/02/22 11:38:27;;;;;;;0.97;0.90;;;8.00;99.90;;;;;;5006337;28;20516;-58
2024/02/22 11:40:52;;;;;;;1.10;1.10;;;8.10;99.90;;;;;;5004874;28;20183;-61
2024/02/22 11:43:25;;;;;;;1.37;1.10;;;8.10;99.90;;;;;;5007987;28;20415;-56
2024/02/22 11:46:00;;;;;;;0.90;0.90;;;8.10;99.90;;;;;;5006557;28;20204;-60
2024/02/22 11:48:25;;;;;;;0.97;0.97;;;8.10;99.90;;;;;;5004760;28;20419;-59
2024/02/22 11:50:51;;;;;;;0.90;0.90;;;8.10;99.90;;;;;;5008514;28;21002;-61
2024/02/22 11:53:16;;;;;;;1.83;1.00;;;8.10;99.90;;;;;;5008473;28;20307;-60
2024/02/22 11:55:42;;;;;;;2.40;0.90;;;8.10;99.90;;;;;;5005121;28;20188;-60
2024/02/22 11:58:08;;;;;;;1.53;0.87;;;8.10;99.90;;;;;;5004919;28;20184;-60
2024/02/22 12:00:33;;;;;;;1.70;1.13;;;8.10;99.90;;;;;;5008030;28;20647;-59
2024/02/22 12:02:59;;;;;;;1.63;1.53;;;8.20;99.90;;;;;;5007316;28;20180;-60
2024/02/22 12:05:25;;;;;;;1.23;1.00;;;8.20;99.90;;;;;;5005365;28;20207;-60
2024/02/22 12:07:51;;;;;;;1.20;1.00;;;8.20;99.90;;;;;;5003066;28;20177;-60
2024/02/22 12:10:17;;;;;;;1.20;1.10;;;8.30;99.90;;;;;;5007356;28;20835;-59
2024/02/22 12:12:42;;;;;;;1.00;1.00;;;8.30;99.90;;;;;;5005928;28;20299;-60
2024/02/22 12:15:09;;;;;;;0.70;0.70;;;8.40;99.90;;;;;;5005983;28;20208;-60
2024/02/22 12:17:36;;;;;;;1.03;0.93;;;8.40;99.90;;;;;;5005119;28;20180;-60
2024/02/22 12:20:03;;;;;;;1.10;1.00;;;8.40;99.90;;;;;;5007049;28;20506;-60
2024/02/22 12:22:31;;;;;;;1.20;0.80;;;8.40;99.90;;;;;;5004448;28;20435;-59
2024/02/22 12:24:58;;;;;;;1.73;1.50;;;8.40;99.90;;;;;;5003839;28;20455;-59
2024/02/22 12:27:24;;;;;;;1.53;1.17;;;8.50;99.90;;;;;;5006248;28;20506;-59
2024/02/22 12:29:50;;;;;;;1.10;0.97;;;8.50;99.90;;;;;;5004898;28;20495;-59
2024/02/22 12:32:16;;;;;;;1.30;1.10;;;8.50;99.90;;;;;;5005051;28;20180;-60
2024/02/22 12:34:42;;;;;;;1.10;1.10;;;8.50;99.90;;;;;;5006678;28;21023;-59
2024/02/22 12:37:08;;;;;;;1.10;1.00;;;8.50;99.90;;;;;;5005244;28;20183;-59
2024/02/22 12:39:33;;;;;;;2.40;0.90;;;8.50;99.90;;;;;;5001745;28;20601;-60
2024/02/22 12:42:04;;;;;;;1.10;1.00;;;8.50;99.90;;;;;;5005818;28;20181;-59
2024/02/22 12:44:30;;;;;;;0.90;0.90;;;8.50;99.90;;;;;;5006779;28;20208;-59
2024/02/22 12:46:58;;;;;;;1.73;1.17;;;8.50;99.90;;;;;;5004884;28;20423;-59
2024/02/22 12:49:24;;;;;;;1.60;1.20;;;8.50;99.90;;;;;;5005325;28;20177;-59
2024/02/22 12:51:49;;;;;;;1.10;1.10;;;8.50;99.90;;;;;;5008164;28;20420;-59
2024/02/22 12:54:16;;;;;;;2.70;1.20;;;8.50;99.90;;;;;;5007095;28;20431;-59